Nippon Maru — JNNU — position and weather

sailwx.info

Track history (hours):
 
Tides and Currents Weather Stations Pressure Air Temp Water Temp Dewpoint Dewpoint Depression Visibility Wind Speed Wind Dir Waves Ship Positions

Nippon Maru

Last reported at 2017-Aug-16 12:33 UTC. Time now 2017-Aug-20 13:39 UTC.
Position N 34°59' E 139°31'.

Length 166 m; draft 6.5 m.

Type: Passenger vessel. MMSI: 431302000.

Date/timePositionNaut miles runAvg speedWind from/ knotsBaromVisibWave heightAir tempDewpointWater temp
2017-Aug-16 12:33N 34°59' E 139°31'115.9
2017-Aug-16 12:29N 34°59' E 139°32'816.3
2017-Aug-16 12:00N 35°04' E 139°39'816.4
2017-Aug-16 11:31N 35°11' E 139°45'713.0
2017-Aug-16 11:00N 35°17' E 139°45'612.3
2017-Aug-16 10:30N 35°23' E 139°42'5 9.8
2017-Aug-16 10:00N 35°27' E 139°39'0 0.5
2017-Aug-16 09:30N 35°27' E 139°39'0 0.0
2017-Aug-16 09:00N 35°27' E 139°39'0 0.0
2017-Aug-16 08:30N 35°27' E 139°39'0 0.0
2017-Aug-16 08:00N 35°27' E 139°39'0 0.1
2017-Aug-16 07:30N 35°27' E 139°39'1 2.4
2017-Aug-16 07:00N 35°27' E 139°40'3 5.2
2017-Aug-16 06:30N 35°25' E 139°42'713.2
2017-Aug-16 06:00N 35°19' E 139°44'612.3
2017-Aug-16 05:30N 35°13' E 139°47'714.6
2017-Aug-16 05:00N 35°06' E 139°44'816.8
2017-Aug-16 04:30N 35°01' E 139°36'917.6
2017-Aug-16 04:00N 34°55' E 139°28'227 7.2
2017-Aug-14 20:37N 34°14' E 134°57'216.3
2017-Aug-14 20:30N 34°16' E 134°58'1016.6
2017-Aug-14 19:56N 34°25' E 135°00'817.5
2017-Aug-14 19:30N 34°32' E 135°03'612.3
2017-Aug-14 19:00N 34°37' E 134°58'815.1
2017-Aug-14 18:30N 34°34' E 134°50'  
2017-Aug-10 13:00N 34°36' E 134°55'713.7
2017-Aug-10 12:30N 34°36' E 135°03'4 8.7
2017-Aug-10 12:00N 34°37' E 135°09'4 8.4
2017-Aug-10 11:30N 34°40' E 135°12'1 1.1
2017-Aug-10 11:00N 34°41' E 135°11'0 0.0
2017-Aug-10 10:30N 34°41' E 135°11'0 0.0
2017-Aug-10 10:00N 34°41' E 135°11'0 0.0
2017-Aug-10 09:30N 34°41' E 135°11'0 0.0
2017-Aug-10 09:00N 34°41' E 135°11'0 0.0
2017-Aug-10 08:30N 34°41' E 135°11'0 0.0
2017-Aug-10 08:00N 34°41' E 135°11'0 0.8
2017-Aug-10 07:30N 34°40' E 135°11'4 8.1
2017-Aug-10 07:00N 34°37' E 135°11'815.1
2017-Aug-10 06:30N 34°30' E 135°07'816.6
2017-Aug-10 06:00N 34°22' E 135°02'815.2
2017-Aug-10 05:30N 34°15' E 134°59'714.7
2017-Aug-10 05:00N 34°08' E 135°01'917.5
2017-Aug-10 04:30N 33°59' E 135°01'23114.8
2017-Aug-09 12:54N 35°01' E 139°31'718.4
2017-Aug-09 12:30N 35°05' E 139°39'917.1
2017-Aug-09 12:00N 35°11' E 139°45'612.6
2017-Aug-09 11:30N 35°17' E 139°45'612.7
2017-Aug-09 11:01N 35°23' E 139°42'5 9.2
2017-Aug-09 10:30N 35°27' E 139°39'0 0.5
2017-Aug-09 10:00N 35°27' E 139°39'0 0.0
2017-Aug-09 09:30N 35°27' E 139°39'0 0.0
2017-Aug-09 09:00N 35°27' E 139°39'0 0.0
2017-Aug-09 08:30N 35°27' E 139°39'0 0.0
2017-Aug-09 08:00N 35°27' E 139°39'0 0.0
2017-Aug-09 07:30N 35°27' E 139°39'0 0.0
2017-Aug-09 07:00N 35°27' E 139°39'0 0.0
2017-Aug-09 06:30N 35°27' E 139°39'0 0.0
2017-Aug-09 06:00N 35°27' E 139°39'0 0.0
2017-Aug-09 05:30N 35°27' E 139°39'0 0.0
2017-Aug-09 05:00N 35°27' E 139°39'0 0.0
2017-Aug-09 04:30N 35°27' E 139°39'0 0.0
2017-Aug-09 04:00N 35°27' E 139°39'0 0.0
2017-Aug-09 03:30N 35°27' E 139°39'0 0.0
2017-Aug-09 03:00N 35°27' E 139°39'0 0.0
2017-Aug-09 02:30N 35°27' E 139°39'0 0.0
2017-Aug-09 02:00N 35°27' E 139°39'0 0.0
2017-Aug-09 01:30N 35°27' E 139°39'0 0.7
2017-Aug-09 01:00N 35°27' E 139°39'3 6.0
2017-Aug-09 00:30N 35°26' E 139°42'612.5
2017-Aug-09 00:00N 35°19' E 139°43'611.6
2017-Aug-08 23:30N 35°14' E 139°47'611.9
2017-Aug-08 23:00N 35°08' E 139°45'612.2
2017-Aug-08 22:30N 35°03' E 139°42'714.4
2017-Aug-08 22:00N 35°02' E 139°33'815.5
2017-Aug-08 21:30N 35°03' E 139°24'815.2
2017-Aug-08 21:00N 35°05' E 139°15'4 0.6
2017-Aug-08 13:39N 35°05' E 139°10'1 6.8
2017-Aug-08 13:27N 35°05' E 139°11'2 4.6
2017-Aug-08 13:00N 35°03' E 139°13'5 7.5
2017-Aug-08 12:22N 35°05' E 139°08'2 4.4
2017-Aug-08 11:51N 35°06' E 139°05'0 0.0
2017-Aug-08 11:25N 35°06' E 139°05'0 0.1
2017-Aug-08 10:57N 35°06' E 139°05'911.6
2017-Aug-08 10:12N 35°04' E 139°16'417.9
2017-Aug-08 10:00N 35°04' E 139°20'917.8
2017-Aug-08 09:29N 35°02' E 139°31'917.8
2017-Aug-08 09:00N 35°01' E 139°41'815.7
2017-Aug-08 08:30N 34°60' E 139°51'0 0.8
2017-Aug-08 08:00N 34°60' E 139°51'0 0.0
2017-Aug-08 07:30N 34°60' E 139°51'0 0.0
2017-Aug-08 07:00N 34°60' E 139°51'0 0.0
2017-Aug-08 06:23N 34°60' E 139°51'0 0.0
2017-Aug-08 05:47N 34°60' E 139°51'0 0.0
2017-Aug-08 05:29N 34°60' E 139°51'0 0.0
2017-Aug-08 05:00N 34°60' E 139°51'0 0.4
2017-Aug-08 04:30N 34°60' E 139°51'5 9.5
2017-Aug-08 04:00N 35°03' E 139°47'816.0
2017-Aug-08 03:30N 35°11' E 139°47'712.9
2017-Aug-08 03:00N 35°17' E 139°45'714.1
2017-Aug-08 02:30N 35°24' E 139°42'4 8.5
2017-Aug-08 02:00N 35°27' E 139°39'0 0.0
2017-Aug-08 01:30N 35°27' E 139°39'0 0.0
2017-Aug-08 01:00N 35°27' E 139°39'0 0.0
2017-Aug-08 00:30N 35°27' E 139°39'0 0.0
2017-Aug-08 00:00N 35°27' E 139°39'0 0.0
2017-Aug-07 23:30N 35°27' E 139°39'0 0.0
2017-Aug-07 23:00N 35°27' E 139°39'0 0.0
2017-Aug-07 22:30N 35°27' E 139°39'0 0.0
2017-Aug-07 22:00N 35°27' E 139°39'0 0.0
2017-Aug-07 21:30N 35°27' E 139°39'0 0.0
2017-Aug-07 21:00N 35°27' E 139°39'0 0.0
2017-Aug-07 20:31N 35°27' E 139°39'0 0.0
2017-Aug-07 20:01N 35°27' E 139°39'0 0.0
2017-Aug-07 19:31N 35°27' E 139°39'0 0.0
2017-Aug-07 19:00N 35°27' E 139°39'0 0.0
2017-Aug-07 18:30N 35°27' E 139°39'0 0.0
2017-Aug-07 18:01N 35°27' E 139°39'0 0.0
2017-Aug-07 17:31N 35°27' E 139°39'0 0.0
2017-Aug-07 17:00N 35°27' E 139°39'0 0.0
2017-Aug-07 16:30N 35°27' E 139°39'0 0.0
2017-Aug-07 16:00N 35°27' E 139°39'0 0.0
2017-Aug-07 15:31N 35°27' E 139°39'0 0.0
2017-Aug-07 15:00N 35°27' E 139°39'0 0.0
2017-Aug-07 14:30N 35°27' E 139°39'0 0.0
2017-Aug-07 14:00N 35°27' E 139°39'0 0.0
2017-Aug-07 13:30N 35°27' E 139°39'0 0.0
2017-Aug-07 13:00N 35°27' E 139°39'0 0.0
2017-Aug-07 12:30N 35°27' E 139°39'0 0.0
2017-Aug-07 12:00N 35°27' E 139°39'0 0.0
2017-Aug-07 11:30N 35°27' E 139°39'0 0.0
2017-Aug-07 11:00N 35°27' E 139°39'0 0.0
2017-Aug-07 10:30N 35°27' E 139°39'0 0.0
2017-Aug-07 10:01N 35°27' E 139°39'0 0.0
2017-Aug-07 09:30N 35°27' E 139°39'0 0.0
2017-Aug-07 09:00N 35°27' E 139°39'0 0.0
2017-Aug-07 08:30N 35°27' E 139°39'0 0.0
2017-Aug-07 08:00N 35°27' E 139°39'0 0.0
2017-Aug-07 07:30N 35°27' E 139°39'0 0.9
2017-Aug-07 07:01N 35°27' E 139°39'4 7.8
2017-Aug-07 06:30N 35°25' E 139°43'612.2
2017-Aug-07 06:01N 35°19' E 139°44'612.8
2017-Aug-07 05:30N 35°13' E 139°47'4 8.7
2017-Aug-07 05:00N 35°09' E 139°46'4 8.1
2017-Aug-07 04:30N 35°05' E 139°45'4 7.6
2017-Aug-07 04:00N 35°02' E 139°43'4 7.2
2017-Aug-07 03:30N 34°58' E 139°41'5 7.5
2017-Aug-07 02:49N 34°54' E 139°45'4 9.3
2017-Aug-07 02:24N 34°52' E 139°49'1015.9
2017-Aug-07 01:47N 34°54' E 140°00'717.9
2017-Aug-07 01:23N 34°58' E 140°07'  
Track history (hours):
 
Tides and Currents Weather Stations Pressure Air Temp Water Temp Dewpoint Dewpoint Depression Visibility Wind Speed Wind Dir Waves Ship Positions

Nippon Maru

Last reported at 2017-Aug-16 12:33 UTC. Time now 2017-Aug-20 13:39 UTC.
Position N 34°59' E 139°31'.

Length 166 m; draft 6.5 m.

Type: Passenger vessel. MMSI: 431302000.

Date/timePositionNaut miles runAvg speedWind from/ knotsBaromVisibWave heightAir tempDewpointWater temp
2017-Aug-16 12:33N 34°59' E 139°31'115.9
2017-Aug-16 12:29N 34°59' E 139°32'816.3
2017-Aug-16 12:00N 35°04' E 139°39'816.4
2017-Aug-16 11:31N 35°11' E 139°45'713.0
2017-Aug-16 11:00N 35°17' E 139°45'612.3
2017-Aug-16 10:30N 35°23' E 139°42'5 9.8
2017-Aug-16 10:00N 35°27' E 139°39'0 0.5
2017-Aug-16 09:30N 35°27' E 139°39'0 0.0
2017-Aug-16 09:00N 35°27' E 139°39'0 0.0
2017-Aug-16 08:30N 35°27' E 139°39'0 0.0
2017-Aug-16 08:00N 35°27' E 139°39'0 0.1
2017-Aug-16 07:30N 35°27' E 139°39'1 2.4
2017-Aug-16 07:00N 35°27' E 139°40'3 5.2
2017-Aug-16 06:30N 35°25' E 139°42'713.2
2017-Aug-16 06:00N 35°19' E 139°44'612.3
2017-Aug-16 05:30N 35°13' E 139°47'714.6
2017-Aug-16 05:00N 35°06' E 139°44'816.8
2017-Aug-16 04:30N 35°01' E 139°36'917.6
2017-Aug-16 04:00N 34°55' E 139°28'227 7.2
2017-Aug-14 20:37N 34°14' E 134°57'216.3
2017-Aug-14 20:30N 34°16' E 134°58'1016.6
2017-Aug-14 19:56N 34°25' E 135°00'817.5
2017-Aug-14 19:30N 34°32' E 135°03'612.3
2017-Aug-14 19:00N 34°37' E 134°58'815.1
2017-Aug-14 18:30N 34°34' E 134°50'  
2017-Aug-10 13:00N 34°36' E 134°55'713.7
2017-Aug-10 12:30N 34°36' E 135°03'4 8.7
2017-Aug-10 12:00N 34°37' E 135°09'4 8.4
2017-Aug-10 11:30N 34°40' E 135°12'1 1.1
2017-Aug-10 11:00N 34°41' E 135°11'0 0.0
2017-Aug-10 10:30N 34°41' E 135°11'0 0.0
2017-Aug-10 10:00N 34°41' E 135°11'0 0.0
2017-Aug-10 09:30N 34°41' E 135°11'0 0.0
2017-Aug-10 09:00N 34°41' E 135°11'0 0.0
2017-Aug-10 08:30N 34°41' E 135°11'0 0.0
2017-Aug-10 08:00N 34°41' E 135°11'0 0.8
2017-Aug-10 07:30N 34°40' E 135°11'4 8.1
2017-Aug-10 07:00N 34°37' E 135°11'815.1
2017-Aug-10 06:30N 34°30' E 135°07'816.6
2017-Aug-10 06:00N 34°22' E 135°02'815.2
2017-Aug-10 05:30N 34°15' E 134°59'714.7
2017-Aug-10 05:00N 34°08' E 135°01'917.5
2017-Aug-10 04:30N 33°59' E 135°01'23114.8
2017-Aug-09 12:54N 35°01' E 139°31'718.4
2017-Aug-09 12:30N 35°05' E 139°39'917.1
2017-Aug-09 12:00N 35°11' E 139°45'612.6
2017-Aug-09 11:30N 35°17' E 139°45'612.7
2017-Aug-09 11:01N 35°23' E 139°42'5 9.2
2017-Aug-09 10:30N 35°27' E 139°39'0 0.5
2017-Aug-09 10:00N 35°27' E 139°39'0 0.0
2017-Aug-09 09:30N 35°27' E 139°39'0 0.0
2017-Aug-09 09:00N 35°27' E 139°39'0 0.0
2017-Aug-09 08:30N 35°27' E 139°39'0 0.0
2017-Aug-09 08:00N 35°27' E 139°39'0 0.0
2017-Aug-09 07:30N 35°27' E 139°39'0 0.0
2017-Aug-09 07:00N 35°27' E 139°39'0 0.0
2017-Aug-09 06:30N 35°27' E 139°39'0 0.0
2017-Aug-09 06:00N 35°27' E 139°39'0 0.0
2017-Aug-09 05:30N 35°27' E 139°39'0 0.0
2017-Aug-09 05:00N 35°27' E 139°39'0 0.0
2017-Aug-09 04:30N 35°27' E 139°39'0 0.0
2017-Aug-09 04:00N 35°27' E 139°39'0 0.0
2017-Aug-09 03:30N 35°27' E 139°39'0 0.0
2017-Aug-09 03:00N 35°27' E 139°39'0 0.0
2017-Aug-09 02:30N 35°27' E 139°39'0 0.0
2017-Aug-09 02:00N 35°27' E 139°39'0 0.0
2017-Aug-09 01:30N 35°27' E 139°39'0 0.7
2017-Aug-09 01:00N 35°27' E 139°39'3 6.0
2017-Aug-09 00:30N 35°26' E 139°42'612.5
2017-Aug-09 00:00N 35°19' E 139°43'611.6
2017-Aug-08 23:30N 35°14' E 139°47'611.9
2017-Aug-08 23:00N 35°08' E 139°45'612.2
2017-Aug-08 22:30N 35°03' E 139°42'714.4
2017-Aug-08 22:00N 35°02' E 139°33'815.5
2017-Aug-08 21:30N 35°03' E 139°24'815.2
2017-Aug-08 21:00N 35°05' E 139°15'4 0.6
2017-Aug-08 13:39N 35°05' E 139°10'1 6.8
2017-Aug-08 13:27N 35°05' E 139°11'2 4.6
2017-Aug-08 13:00N 35°03' E 139°13'5 7.5
2017-Aug-08 12:22N 35°05' E 139°08'2 4.4
2017-Aug-08 11:51N 35°06' E 139°05'0 0.0
2017-Aug-08 11:25N 35°06' E 139°05'0 0.1
2017-Aug-08 10:57N 35°06' E 139°05'911.6
2017-Aug-08 10:12N 35°04' E 139°16'417.9
2017-Aug-08 10:00N 35°04' E 139°20'917.8
2017-Aug-08 09:29N 35°02' E 139°31'917.8
2017-Aug-08 09:00N 35°01' E 139°41'815.7
2017-Aug-08 08:30N 34°60' E 139°51'0 0.8
2017-Aug-08 08:00N 34°60' E 139°51'0 0.0
2017-Aug-08 07:30N 34°60' E 139°51'0 0.0
2017-Aug-08 07:00N 34°60' E 139°51'0 0.0
2017-Aug-08 06:23N 34°60' E 139°51'0 0.0
2017-Aug-08 05:47N 34°60' E 139°51'0 0.0
2017-Aug-08 05:29N 34°60' E 139°51'0 0.0
2017-Aug-08 05:00N 34°60' E 139°51'0 0.4
2017-Aug-08 04:30N 34°60' E 139°51'5 9.5
2017-Aug-08 04:00N 35°03' E 139°47'816.0
2017-Aug-08 03:30N 35°11' E 139°47'712.9
2017-Aug-08 03:00N 35°17' E 139°45'714.1
2017-Aug-08 02:30N 35°24' E 139°42'4 8.5
2017-Aug-08 02:00N 35°27' E 139°39'0 0.0
2017-Aug-08 01:30N 35°27' E 139°39'0 0.0
2017-Aug-08 01:00N 35°27' E 139°39'0 0.0
2017-Aug-08 00:30N 35°27' E 139°39'0 0.0
2017-Aug-08 00:00N 35°27' E 139°39'0 0.0
2017-Aug-07 23:30N 35°27' E 139°39'0 0.0
2017-Aug-07 23:00N 35°27' E 139°39'0 0.0
2017-Aug-07 22:30N 35°27' E 139°39'0 0.0
2017-Aug-07 22:00N 35°27' E 139°39'0 0.0
2017-Aug-07 21:30N 35°27' E 139°39'0 0.0
2017-Aug-07 21:00N 35°27' E 139°39'0 0.0
2017-Aug-07 20:31N 35°27' E 139°39'0 0.0
2017-Aug-07 20:01N 35°27' E 139°39'0 0.0
2017-Aug-07 19:31N 35°27' E 139°39'0 0.0
2017-Aug-07 19:00N 35°27' E 139°39'0 0.0
2017-Aug-07 18:30N 35°27' E 139°39'0 0.0
2017-Aug-07 18:01N 35°27' E 139°39'0 0.0
2017-Aug-07 17:31N 35°27' E 139°39'0 0.0
2017-Aug-07 17:00N 35°27' E 139°39'0 0.0
2017-Aug-07 16:30N 35°27' E 139°39'0 0.0
2017-Aug-07 16:00N 35°27' E 139°39'0 0.0
2017-Aug-07 15:31N 35°27' E 139°39'0 0.0
2017-Aug-07 15:00N 35°27' E 139°39'0 0.0
2017-Aug-07 14:30N 35°27' E 139°39'0 0.0
2017-Aug-07 14:00N 35°27' E 139°39'0 0.0
2017-Aug-07 13:30N 35°27' E 139°39'0 0.0
2017-Aug-07 13:00N 35°27' E 139°39'0 0.0
2017-Aug-07 12:30N 35°27' E 139°39'0 0.0
2017-Aug-07 12:00N 35°27' E 139°39'0 0.0
2017-Aug-07 11:30N 35°27' E 139°39'0 0.0
2017-Aug-07 11:00N 35°27' E 139°39'0 0.0
2017-Aug-07 10:30N 35°27' E 139°39'0 0.0
2017-Aug-07 10:01N 35°27' E 139°39'0 0.0
2017-Aug-07 09:30N 35°27' E 139°39'0 0.0
2017-Aug-07 09:00N 35°27' E 139°39'0 0.0
2017-Aug-07 08:30N 35°27' E 139°39'0 0.0
2017-Aug-07 08:00N 35°27' E 139°39'0 0.0
2017-Aug-07 07:30N 35°27' E 139°39'0 0.9
2017-Aug-07 07:01N 35°27' E 139°39'4 7.8
2017-Aug-07 06:30N 35°25' E 139°43'612.2
2017-Aug-07 06:01N 35°19' E 139°44'612.8
2017-Aug-07 05:30N 35°13' E 139°47'4 8.7
2017-Aug-07 05:00N 35°09' E 139°46'4 8.1
2017-Aug-07 04:30N 35°05' E 139°45'4 7.6
2017-Aug-07 04:00N 35°02' E 139°43'4 7.2
2017-Aug-07 03:30N 34°58' E 139°41'5 7.5
2017-Aug-07 02:49N 34°54' E 139°45'4 9.3
2017-Aug-07 02:24N 34°52' E 139°49'1015.9
2017-Aug-07 01:47N 34°54' E 140°00'717.9
2017-Aug-07 01:23N 34°58' E 140°07'  

Dump ship's entire track history